createdAt,value
2018-01-15T00:00:02.128Z,72.90
2018-01-15T00:02:30.638Z,72.90
2018-01-15T00:05:00.626Z,73.50
2018-01-15T00:07:29.348Z,73.50
2018-01-15T00:09:57.898Z,73.70
2018-01-15T00:12:27.004Z,73.20
2018-01-15T00:14:55.763Z,73.10
2018-01-15T00:17:24.048Z,73.40
2018-01-15T00:19:53.668Z,73.90
2018-01-15T00:22:22.095Z,74.80
2018-01-15T00:24:50.742Z,75.20
2018-01-15T00:27:19.598Z,75.40
2018-01-15T00:29:48.380Z,75.60
2018-01-15T00:32:17.220Z,75.20
2018-01-15T00:34:46.664Z,75.80
2018-01-15T00:37:15.977Z,75.90
2018-01-15T00:39:45.974Z,76.40
2018-01-15T00:42:14.697Z,76.80
2018-01-15T00:44:43.332Z,77.90
2018-01-15T00:47:12.598Z,78.00
2018-01-15T00:49:43.090Z,78.60
2018-01-15T00:52:12.977Z,78.10
2018-01-15T00:54:42.477Z,79.00
2018-01-15T00:57:11.256Z,78.90
2018-01-15T00:59:41.326Z,78.60
2018-01-15T01:02:09.908Z,78.60
2018-01-15T01:04:38.295Z,79.00
2018-01-15T01:07:08.078Z,79.10
2018-01-15T01:09:36.773Z,79.50
2018-01-15T01:12:05.776Z,79.40
2018-01-15T01:14:34.429Z,79.10
2018-01-15T01:17:03.014Z,78.50
2018-01-15T01:19:31.795Z,79.00
2018-01-15T01:22:01.836Z,78.90
2018-01-15T01:24:30.692Z,78.60
2018-01-15T01:27:01.035Z,79.10
2018-01-15T01:29:30.073Z,79.00
2018-01-15T01:31:59.191Z,79.50
2018-01-15T01:34:28.112Z,79.10
2018-01-15T01:36:56.848Z,79.10
2018-01-15T01:39:25.964Z,79.00
2018-01-15T01:41:56.205Z,78.50
2018-01-15T01:44:24.905Z,78.50
2018-01-15T01:46:53.747Z,78.20
2018-01-15T01:49:22.462Z,78.20
2018-01-15T01:51:50.931Z,78.20
2018-01-15T01:54:20.148Z,78.20
2018-01-15T01:56:48.889Z,78.00
2018-01-15T01:59:17.968Z,78.10
2018-01-15T02:01:47.818Z,78.00
2018-01-15T02:04:16.633Z,77.40
2018-01-15T02:06:45.407Z,77.40
2018-01-15T02:09:13.795Z,77.30
2018-01-15T02:11:43.131Z,77.20
2018-01-15T02:14:12.768Z,76.60
2018-01-15T02:16:41.145Z,76.30
2018-01-15T02:19:09.789Z,75.20
2018-01-15T02:21:39.204Z,75.30
2018-01-15T02:24:09.168Z,75.10
2018-01-15T02:26:37.757Z,74.90
2018-01-15T02:29:05.889Z,75.20
2018-01-15T02:31:34.671Z,74.50
2018-01-15T02:34:03.290Z,74.50
2018-01-15T02:36:31.577Z,74.30
2018-01-15T02:39:01.774Z,74.40
2018-01-15T02:41:31.041Z,74.40
2018-01-15T02:44:00.410Z,74.50
2018-01-15T02:46:29.326Z,74.30
2018-01-15T02:48:57.917Z,74.50
2018-01-15T02:51:27.648Z,73.80
2018-01-15T02:53:57.188Z,73.80
2018-01-15T02:56:26.135Z,73.80
2018-01-15T02:58:56.732Z,73.80
2018-01-15T03:01:25.334Z,73.50
2018-01-15T03:03:54.106Z,73.60
2018-01-15T03:06:22.996Z,73.90
2018-01-15T03:08:52.372Z,73.70
2018-01-15T03:11:22.246Z,73.90
2018-01-15T03:13:51.203Z,73.70
2018-01-15T03:16:21.191Z,74.40
2018-01-15T03:18:49.927Z,74.40
2018-01-15T03:21:19.405Z,74.70
2018-01-15T03:23:49.441Z,74.70
2018-01-15T03:26:18.085Z,74.60
2018-01-15T03:28:46.474Z,74.40
2018-01-15T03:31:15.775Z,74.70
2018-01-15T03:33:45.231Z,74.80
2018-01-15T03:36:13.991Z,74.90
2018-01-15T03:38:42.954Z,75.00
2018-01-15T03:41:12.374Z,74.90
2018-01-15T03:43:40.748Z,74.70
2018-01-15T03:46:09.206Z,74.80
2018-01-15T03:48:38.132Z,74.70
2018-01-15T03:51:06.460Z,75.00
2018-01-15T03:53:35.670Z,74.70
2018-01-15T03:56:05.397Z,74.70
2018-01-15T03:58:34.625Z,74.30
2018-01-15T04:01:03.599Z,74.50
2018-01-15T04:03:32.387Z,74.20
2018-01-15T04:06:01.910Z,74.50
2018-01-15T04:08:30.925Z,74.80
2018-01-15T04:11:00.573Z,74.60
2018-01-15T04:13:29.268Z,74.60
2018-01-15T04:15:57.643Z,74.80
2018-01-15T04:18:26.634Z,74.80
2018-01-15T04:20:56.232Z,74.90
2018-01-15T04:23:25.324Z,74.90
2018-01-15T04:25:54.465Z,74.70
2018-01-15T04:28:23.355Z,74.80
2018-01-15T04:30:52.141Z,74.60
2018-01-15T04:33:20.689Z,74.50
2018-01-15T04:35:48.953Z,74.80
2018-01-15T04:38:17.816Z,75.20
2018-01-15T04:40:46.309Z,75.40
2018-01-15T04:43:15.192Z,75.40
2018-01-15T04:45:44.240Z,74.60
2018-01-15T04:48:13.334Z,74.80
2018-01-15T04:50:42.514Z,74.80
2018-01-15T04:53:11.101Z,75.70
2018-01-15T04:55:39.835Z,75.60
2018-01-15T04:58:08.522Z,75.60
2018-01-15T05:00:37.251Z,75.30
2018-01-15T05:03:05.896Z,75.30
2018-01-15T05:05:34.692Z,75.50
2018-01-15T05:08:03.740Z,75.60
2018-01-15T05:25:54.693Z,75.50
2018-01-15T05:28:23.254Z,76.20
2018-01-15T05:30:51.842Z,76.10
2018-01-15T05:33:21.852Z,75.70
2018-01-15T05:35:50.576Z,75.70
2018-01-15T05:38:19.085Z,75.40
2018-01-15T05:40:47.292Z,75.40
2018-01-15T05:43:16.013Z,75.40
2018-01-15T05:45:44.573Z,75.10
2018-01-15T05:48:14.494Z,75.50
2018-01-15T05:50:43.539Z,75.50
2018-01-15T05:53:13.030Z,75.00
2018-01-15T05:55:41.334Z,75.50
2018-01-15T05:58:10.775Z,75.50
2018-01-15T06:00:39.433Z,74.90
2018-01-15T06:03:09.510Z,75.10
2018-01-15T06:05:37.813Z,75.10
2018-01-15T06:08:06.652Z,75.10
2018-01-15T06:10:34.769Z,75.10
2018-01-15T06:13:04.289Z,75.20
2018-01-15T06:15:32.823Z,75.50
2018-01-15T06:18:01.765Z,75.70
2018-01-15T06:20:31.414Z,75.50
2018-01-15T06:22:59.724Z,75.40
2018-01-15T06:25:28.213Z,75.60
2018-01-15T06:27:57.829Z,75.90
2018-01-15T06:30:26.465Z,75.80
2018-01-15T06:32:55.899Z,75.60
2018-01-15T06:35:25.711Z,75.70
2018-01-15T06:37:56.346Z,76.00
2018-01-15T06:40:25.767Z,75.90
2018-01-15T06:42:54.942Z,76.80
2018-01-15T06:45:23.410Z,76.40
2018-01-15T06:47:51.890Z,76.80
2018-01-15T06:50:20.682Z,76.80
2018-01-15T06:52:49.215Z,77.00
2018-01-15T06:55:17.853Z,76.90
2018-01-15T06:57:47.629Z,76.20
2018-01-15T07:00:15.899Z,76.20
2018-01-15T07:02:44.581Z,76.20
2018-01-15T07:05:13.441Z,76.20
2018-01-15T07:07:41.642Z,76.20
2018-01-15T07:10:10.503Z,76.70
2018-01-15T07:12:39.019Z,76.90
2018-01-15T07:15:08.323Z,76.60
2018-01-15T07:17:37.454Z,76.80
2018-01-15T07:20:06.294Z,76.80
2018-01-15T07:22:35.295Z,76.80
2018-01-15T07:25:04.611Z,76.30
2018-01-15T07:27:33.667Z,76.30
2018-01-15T07:30:03.088Z,75.60
2018-01-15T07:32:31.564Z,75.80
2018-01-15T07:35:01.109Z,75.60
2018-01-15T07:37:30.211Z,75.20
2018-01-15T07:39:59.046Z,75.40
2018-01-15T07:42:27.378Z,75.20
2018-01-15T07:44:56.138Z,75.10
2018-01-15T07:47:26.620Z,75.20
2018-01-15T07:49:55.092Z,75.20
2018-01-15T07:52:24.680Z,75.10
2018-01-15T07:54:53.621Z,75.10
2018-01-15T07:57:22.789Z,75.00
2018-01-15T07:59:51.470Z,75.30
2018-01-15T08:02:19.748Z,74.60
2018-01-15T08:04:48.741Z,74.40
2018-01-15T08:07:18.005Z,74.30
2018-01-15T08:09:47.654Z,74.40
2018-01-15T08:12:16.463Z,74.30
2018-01-15T08:14:45.068Z,74.20
2018-01-15T08:17:14.031Z,73.90
2018-01-15T08:19:43.948Z,73.70
2018-01-15T08:22:12.953Z,73.70
2018-01-15T08:24:41.512Z,74.00
2018-01-15T08:27:10.535Z,74.30
2018-01-15T08:29:39.652Z,74.20
2018-01-15T08:32:09.166Z,74.90
2018-01-15T08:34:39.186Z,75.00
2018-01-15T08:37:08.102Z,74.70
2018-01-15T08:39:37.374Z,74.10
2018-01-15T08:42:06.367Z,74.20
2018-01-15T08:44:36.046Z,73.10
2018-01-15T08:47:05.617Z,72.80
2018-01-15T08:49:34.694Z,72.60
2018-01-15T08:52:03.068Z,72.70
2018-01-15T08:54:32.272Z,73.20
2018-01-15T08:57:02.214Z,73.50
2018-01-15T08:59:31.403Z,73.40
2018-01-15T09:02:00.255Z,72.70
2018-01-15T09:04:28.446Z,72.30
2018-01-15T09:06:58.900Z,71.60
2018-01-15T09:09:27.557Z,71.50
2018-01-15T09:11:56.697Z,71.50
2018-01-15T09:14:25.765Z,71.70
2018-01-15T09:16:54.266Z,70.60
2018-01-15T09:19:22.784Z,70.90
2018-01-15T09:21:51.299Z,70.40
2018-01-15T09:24:20.825Z,70.40
2018-01-15T09:26:49.438Z,70.80
2018-01-15T09:29:18.402Z,70.60
2018-01-15T09:31:47.156Z,70.60
2018-01-15T09:34:16.320Z,70.60
2018-01-15T09:36:45.087Z,69.90
2018-01-15T09:39:14.183Z,70.00
2018-01-15T09:41:42.723Z,69.40
2018-01-15T09:44:11.977Z,70.20
2018-01-15T09:46:40.520Z,70.00
2018-01-15T09:49:09.385Z,69.50
2018-01-15T09:51:38.225Z,68.50
2018-01-15T09:54:07.051Z,68.50
2018-01-15T09:56:36.083Z,67.50
2018-01-15T09:59:05.804Z,67.20
2018-01-15T10:01:34.031Z,67.00
2018-01-15T10:04:04.056Z,66.20
2018-01-15T10:06:33.203Z,65.50
2018-01-15T10:09:02.664Z,64.60
2018-01-15T10:11:31.832Z,64.50
2018-01-15T10:14:01.259Z,65.30
2018-01-15T10:16:31.108Z,63.90
2018-01-15T10:18:59.784Z,63.50
2018-01-15T10:21:29.455Z,62.10
2018-01-15T10:23:58.698Z,62.90
2018-01-15T10:26:28.254Z,62.00
2018-01-15T10:28:57.091Z,61.60
2018-01-15T10:31:25.377Z,60.90
2018-01-15T10:33:53.679Z,59.80
2018-01-15T10:36:22.484Z,59.90
2018-01-15T10:38:51.757Z,59.70
2018-01-15T10:41:20.748Z,59.50
2018-01-15T10:43:49.113Z,59.50
2018-01-15T10:46:17.566Z,57.50
2018-01-15T10:48:46.738Z,56.30
2018-01-15T10:51:15.742Z,53.40
2018-01-15T10:53:44.926Z,51.50
2018-01-15T10:56:14.395Z,50.20
2018-01-15T10:58:43.293Z,50.40
2018-01-15T11:01:12.672Z,50.90
2018-01-15T11:03:43.258Z,52.70
2018-01-15T11:06:11.761Z,53.40
2018-01-15T11:08:41.194Z,55.20
2018-01-15T11:11:09.852Z,55.10
2018-01-15T11:13:39.398Z,55.70
2018-01-15T11:16:09.192Z,55.70
2018-01-15T11:18:37.727Z,56.70
2018-01-15T11:21:07.441Z,57.20
2018-01-15T11:23:36.254Z,57.60
2018-01-15T11:26:05.985Z,57.60
2018-01-15T11:28:34.715Z,57.60
2018-01-15T11:31:03.937Z,57.60
2018-01-15T11:33:34.034Z,58.10
2018-01-15T11:36:02.444Z,58.40
2018-01-15T11:38:31.590Z,58.60
2018-01-15T11:41:00.199Z,58.70
2018-01-15T11:43:29.137Z,58.60
2018-01-15T11:45:58.034Z,59.50
2018-01-15T11:48:26.658Z,59.30
2018-01-15T11:50:55.942Z,59.60
2018-01-15T11:53:24.250Z,59.60
2018-01-15T11:55:53.149Z,59.50
2018-01-15T11:58:21.587Z,59.00
2018-01-15T12:00:51.452Z,58.90
2018-01-15T12:03:20.758Z,58.80
2018-01-15T12:05:49.368Z,59.60
2018-01-15T12:08:18.467Z,58.50
2018-01-15T12:10:47.648Z,58.90
2018-01-15T12:13:16.746Z,59.20
2018-01-15T12:15:46.216Z,59.40
2018-01-15T12:18:14.550Z,59.30
2018-01-15T12:20:43.360Z,59.00
2018-01-15T12:23:12.421Z,59.10
2018-01-15T12:25:41.624Z,59.30
2018-01-15T12:28:11.045Z,59.40
2018-01-15T12:30:39.885Z,59.30
2018-01-15T12:33:08.818Z,60.00
2018-01-15T12:35:38.074Z,60.00
2018-01-15T12:38:07.895Z,60.80
2018-01-15T12:40:37.532Z,61.00
2018-01-15T12:43:07.829Z,60.80
2018-01-15T12:45:37.625Z,61.10
2018-01-15T12:48:06.970Z,60.50
2018-01-15T12:50:35.450Z,60.70
2018-01-15T12:53:04.596Z,61.00
2018-01-15T12:55:33.759Z,60.80
2018-01-15T12:58:02.882Z,61.30
2018-01-15T13:00:31.915Z,60.70
2018-01-15T13:03:00.883Z,61.90
2018-01-15T13:05:29.252Z,64.00
2018-01-15T13:07:57.778Z,64.30
2018-01-15T13:10:27.575Z,64.60
2018-01-15T13:12:56.172Z,64.10
2018-01-15T13:15:24.650Z,63.30
2018-01-15T13:17:53.237Z,63.70
2018-01-15T13:20:21.954Z,63.40
2018-01-15T13:22:50.656Z,62.90
2018-01-15T13:25:20.243Z,63.00
2018-01-15T13:27:48.618Z,63.30
2018-01-15T13:30:17.568Z,63.60
2018-01-15T13:32:46.828Z,63.40
2018-01-15T13:35:15.982Z,62.90
2018-01-15T13:37:44.934Z,62.60
2018-01-15T13:40:13.607Z,62.60
2018-01-15T13:42:43.435Z,62.40
2018-01-15T13:45:11.878Z,62.30
2018-01-15T13:47:41.450Z,62.30
2018-01-15T13:50:09.835Z,62.40
2018-01-15T13:52:38.551Z,62.60
2018-01-15T13:55:07.619Z,62.20
2018-01-15T13:57:36.258Z,62.60
2018-01-15T14:00:05.056Z,63.10
2018-01-15T14:02:33.879Z,63.90
2018-01-15T14:05:02.634Z,63.40
2018-01-15T14:07:32.129Z,63.40
2018-01-15T14:10:00.821Z,64.30
2018-01-15T14:12:29.865Z,64.20
2018-01-15T14:14:58.316Z,65.00
2018-01-15T14:17:26.637Z,65.00
2018-01-15T14:19:56.315Z,63.20
2018-01-15T14:22:25.540Z,61.20
2018-01-15T14:24:53.904Z,61.20
2018-01-15T14:27:23.149Z,61.40
2018-01-15T14:29:51.859Z,61.50
2018-01-15T14:32:20.845Z,61.80
2018-01-15T14:34:50.122Z,62.30
2018-01-15T14:37:18.646Z,63.30
2018-01-15T14:39:47.908Z,63.80
2018-01-15T14:42:17.223Z,63.50
2018-01-15T14:44:45.806Z,64.00
2018-01-15T14:47:14.516Z,64.50
2018-01-15T14:49:43.844Z,65.70
2018-01-15T14:52:12.702Z,65.50
2018-01-15T14:54:42.522Z,65.80
2018-01-15T14:57:11.336Z,65.80
2018-01-15T14:59:39.732Z,65.60
2018-01-15T15:02:09.087Z,65.80
2018-01-15T15:04:37.601Z,66.10
2018-01-15T15:07:06.509Z,66.80
2018-01-15T15:09:36.083Z,67.90
2018-01-15T15:12:05.075Z,67.90
2018-01-15T15:14:34.247Z,68.20
2018-01-15T15:17:02.988Z,68.30
2018-01-15T15:19:32.055Z,68.50
2018-01-15T15:22:01.637Z,68.90
2018-01-15T15:24:31.230Z,69.40
2018-01-15T15:27:00.184Z,70.00
2018-01-15T15:29:29.831Z,70.20
2018-01-15T15:31:58.498Z,70.20
2018-01-15T15:34:28.025Z,70.30
2018-01-15T15:36:58.704Z,70.30
2018-01-15T15:39:27.546Z,70.80
2018-01-15T15:41:56.558Z,72.40
2018-01-15T15:44:25.242Z,72.40
2018-01-15T15:46:53.299Z,72.50
2018-01-15T15:49:22.073Z,72.70
2018-01-15T15:51:50.894Z,72.90
2018-01-15T15:54:19.705Z,72.90
2018-01-15T15:56:48.860Z,73.50
2018-01-15T15:59:17.417Z,73.40
2018-01-15T16:01:47.006Z,73.50
2018-01-15T16:04:15.623Z,73.60
2018-01-15T16:06:44.303Z,73.80
2018-01-15T16:09:13.491Z,74.00
2018-01-15T16:11:42.089Z,73.90
2018-01-15T16:14:11.067Z,75.30
2018-01-15T16:16:39.892Z,74.60
2018-01-15T16:19:09.279Z,75.20
2018-01-15T16:21:37.841Z,75.10
2018-01-15T16:24:07.291Z,75.20
2018-01-15T16:26:35.873Z,75.20
2018-01-15T16:29:04.598Z,75.50
2018-01-15T16:31:35.212Z,74.80
2018-01-15T16:34:04.726Z,74.70
2018-01-15T16:36:34.414Z,75.10
2018-01-15T16:39:03.607Z,75.10
2018-01-15T16:41:31.922Z,75.00
2018-01-15T16:44:01.172Z,74.80
2018-01-15T16:46:30.058Z,74.90
2018-01-15T16:48:59.467Z,75.20
2018-01-15T16:51:28.636Z,75.60
2018-01-15T16:53:57.340Z,75.50
2018-01-15T16:56:27.000Z,75.60
2018-01-15T16:58:55.653Z,75.90
2018-01-15T17:01:24.693Z,76.20
2018-01-15T17:03:53.176Z,75.70
2018-01-15T17:06:21.698Z,75.10
2018-01-15T17:08:51.933Z,75.30
2018-01-15T17:11:20.941Z,76.20
2018-01-15T17:13:49.915Z,76.40
2018-01-15T17:16:19.091Z,77.10
2018-01-15T17:18:48.853Z,77.10
2018-01-15T17:21:17.783Z,76.80
2018-01-15T17:23:46.456Z,77.10
2018-01-15T17:26:14.891Z,77.40
2018-01-15T17:28:44.142Z,76.80
2018-01-15T17:31:12.608Z,76.40
2018-01-15T17:33:41.511Z,76.30
2018-01-15T17:36:10.150Z,76.50
2018-01-15T17:38:38.627Z,76.60
2018-01-15T17:41:07.354Z,76.00
2018-01-15T17:43:35.939Z,75.70
2018-01-15T17:46:05.265Z,75.40
2018-01-15T17:48:34.250Z,75.00
2018-01-15T17:51:03.016Z,75.00
2018-01-15T17:53:31.853Z,74.90
2018-01-15T17:56:02.217Z,74.80
2018-01-15T17:58:30.476Z,74.30
2018-01-15T18:00:59.416Z,74.40
2018-01-15T18:03:29.364Z,74.20
2018-01-15T18:05:59.307Z,74.10
2018-01-15T18:08:29.150Z,74.30
2018-01-15T18:10:57.570Z,74.10
2018-01-15T18:13:26.317Z,74.10
2018-01-15T18:15:56.228Z,74.00
2018-01-15T18:18:25.501Z,74.30
2018-01-15T18:20:54.954Z,74.00
2018-01-15T18:23:24.328Z,74.10
2018-01-15T18:25:54.481Z,74.40
2018-01-15T18:28:23.031Z,74.40
2018-01-15T18:30:52.532Z,74.40
2018-01-15T18:33:22.131Z,74.80
2018-01-15T18:35:51.534Z,74.90
2018-01-15T18:38:20.487Z,74.60
2018-01-15T18:40:49.171Z,75.20
2018-01-15T18:43:17.918Z,75.40
2018-01-15T18:45:46.898Z,75.50
2018-01-15T18:48:15.930Z,75.10
2018-01-15T18:50:44.790Z,75.10
2018-01-15T18:53:13.765Z,75.20
2018-01-15T18:55:43.513Z,75.30
2018-01-15T18:58:11.964Z,75.30
2018-01-15T19:00:41.063Z,74.70
2018-01-15T19:03:10.608Z,75.10
2018-01-15T19:05:40.050Z,74.70
2018-01-15T19:08:09.147Z,74.40
2018-01-15T19:10:37.417Z,74.20
2018-01-15T19:13:07.657Z,74.60
2018-01-15T19:15:37.112Z,74.60
2018-01-15T19:18:06.240Z,74.60
2018-01-15T19:20:35.432Z,75.10
2018-01-15T19:23:04.882Z,75.80
2018-01-15T19:25:33.083Z,75.70
2018-01-15T19:28:01.812Z,76.60
2018-01-15T19:30:31.339Z,77.10
2018-01-15T19:32:59.427Z,76.80
2018-01-15T19:35:28.135Z,77.20
2018-01-15T19:37:56.674Z,77.70
2018-01-15T19:40:26.452Z,77.70
2018-01-15T19:42:55.753Z,78.10
2018-01-15T19:45:25.337Z,79.30
2018-01-15T19:47:54.731Z,79.50
2018-01-15T19:50:23.613Z,79.50
2018-01-15T19:52:52.167Z,79.70
2018-01-15T19:55:20.397Z,79.10
2018-01-15T19:57:50.713Z,79.80
2018-01-15T20:00:19.322Z,80.00
2018-01-15T20:02:48.228Z,79.90
2018-01-15T20:05:16.772Z,80.70
2018-01-15T20:07:45.617Z,81.20
2018-01-15T20:10:14.410Z,81.40
2018-01-15T20:12:43.456Z,81.50
2018-01-15T20:15:13.025Z,80.80
2018-01-15T20:17:41.784Z,81.40
2018-01-15T20:20:11.478Z,81.10
2018-01-15T20:22:41.211Z,82.00
2018-01-15T20:25:10.822Z,82.10
2018-01-15T20:27:39.209Z,82.40
2018-01-15T20:30:07.858Z,82.60
2018-01-15T20:32:37.775Z,82.50
2018-01-15T20:35:06.407Z,82.40
2018-01-15T20:37:35.558Z,83.20
2018-01-15T20:40:05.099Z,83.30
2018-01-15T20:42:34.410Z,83.10
2018-01-15T20:45:03.756Z,82.80
2018-01-15T20:47:32.706Z,82.70
2018-01-15T20:50:00.951Z,82.70
2018-01-15T20:52:30.289Z,82.20
2018-01-15T20:54:58.545Z,82.20
2018-01-15T20:57:26.806Z,82.40
2018-01-15T20:59:55.101Z,82.30
2018-01-15T21:02:23.289Z,82.30
2018-01-15T21:04:51.665Z,82.00
2018-01-15T21:07:19.882Z,82.00
2018-01-15T21:09:49.055Z,81.70
2018-01-15T21:12:17.558Z,81.60
2018-01-15T21:14:46.619Z,81.80
2018-01-15T21:17:14.805Z,81.70
2018-01-15T21:19:43.176Z,82.10
2018-01-15T21:22:11.409Z,83.10
2018-01-15T21:24:39.674Z,83.30
2018-01-15T21:27:07.859Z,83.80
2018-01-15T21:29:36.255Z,84.20
2018-01-15T21:32:04.658Z,84.30
2018-01-15T21:34:33.167Z,84.30
2018-01-15T21:37:01.332Z,84.50
2018-01-15T21:39:29.711Z,84.00
2018-01-15T21:41:58.974Z,84.10
2018-01-15T21:44:27.682Z,83.20
2018-01-15T21:46:57.391Z,82.60
2018-01-15T21:49:25.837Z,82.60
2018-01-15T21:51:54.032Z,82.70
2018-01-15T21:54:23.341Z,82.10
2018-01-15T21:56:53.004Z,82.90
2018-01-15T21:59:21.320Z,82.90
2018-01-15T22:01:50.261Z,83.20
2018-01-15T22:04:19.806Z,84.10
2018-01-15T22:06:48.220Z,84.40
2018-01-15T22:09:16.685Z,84.80
2018-01-15T22:11:45.832Z,85.20
2018-01-15T22:14:16.094Z,85.40
2018-01-15T22:16:45.257Z,85.40
2018-01-15T22:19:13.811Z,85.50
2018-01-15T22:21:42.307Z,86.00
2018-01-15T22:24:11.161Z,86.00
2018-01-15T22:26:39.909Z,86.40
2018-01-15T22:29:09.254Z,86.40
2018-01-15T22:31:38.501Z,86.40
2018-01-15T22:34:09.712Z,87.00
2018-01-15T22:36:38.656Z,86.20
2018-01-15T22:39:07.602Z,86.40
2018-01-15T22:41:36.385Z,85.90
2018-01-15T22:44:05.661Z,85.70
2018-01-15T22:46:36.311Z,86.60
2018-01-15T22:49:04.568Z,85.60
2018-01-15T22:51:33.216Z,85.80
2018-01-15T22:54:02.022Z,85.30
2018-01-15T22:56:30.570Z,85.70
2018-01-15T22:58:59.200Z,85.70
2018-01-15T23:01:27.545Z,85.90
2018-01-15T23:03:56.071Z,86.00
2018-01-15T23:06:24.785Z,85.80
2018-01-15T23:08:54.561Z,85.30
2018-01-15T23:11:23.275Z,85.50
2018-01-15T23:13:53.029Z,85.80
2018-01-15T23:16:22.607Z,85.80
2018-01-15T23:18:52.033Z,86.00
2018-01-15T23:21:20.967Z,86.30
2018-01-15T23:23:50.640Z,86.20
2018-01-15T23:26:19.109Z,86.50
2018-01-15T23:28:48.226Z,87.00
2018-01-15T23:31:17.144Z,86.90
2018-01-15T23:33:45.843Z,86.60
2018-01-15T23:36:14.563Z,86.40
2018-01-15T23:38:43.787Z,86.60
2018-01-15T23:41:13.052Z,86.80
2018-01-15T23:43:42.406Z,86.50
2018-01-15T23:46:11.066Z,86.70
2018-01-15T23:48:39.751Z,86.80
2018-01-15T23:51:08.665Z,87.20
2018-01-15T23:53:37.171Z,87.50
2018-01-15T23:56:05.428Z,87.80
2018-01-15T23:58:34.451Z,87.90
